Clutier, Iowa
Current Conditions -  °F | °C
As of 7:35 AM on Monday 22 Dec 2014 (Local Time) from KVTI Reporting Station
Overcast Overcast  
Wind Chill: 30°   Ceiling: 1700
Heat Index: 38°   Visibility: 7mi
Dew Point: 33°   Wind: 13mph
Humidity: 83%   Direction: 150°SSE
Pressure: 29.72"   Gusts: 18mph
Location:  42.08°N, 92.4°W
Report Text: KVTI 221335Z AUTO 15011G16KT 7SM OVC017 03/01 A2972 RMK AO2 T00310005
Loading
Personal Weather Stations






























Interactive Weather Map New forecast layout! Learn more

10-Day Weather Forecast

Advertisements
Track Severe Weather on mobile